sensor_id;sensor_type;location;lat;lon;timestamp;P1;durP1;ratioP1;P2;durP2;ratioP2
44606;SDS011;30315;46.072;14.474;2024-03-06T02:05:27;3.13;;;2.92;;
44606;SDS011;30315;46.072;14.474;2024-03-06T02:07:58;3.33;;;2.65;;
44606;SDS011;30315;46.072;14.474;2024-03-06T02:10:29;4.32;;;3.25;;
44606;SDS011;30315;46.072;14.474;2024-03-06T02:12:57;3.92;;;3.63;;
44606;SDS011;30315;46.072;14.474;2024-03-06T02:15:24;3.05;;;2.75;;
44606;SDS011;30315;46.072;14.474;2024-03-06T02:17:52;2.72;;;2.63;;
44606;SDS011;30315;46.072;14.474;2024-03-06T02:20:25;3.65;;;2.72;;
44606;SDS011;30315;46.072;14.474;2024-03-06T02:22:53;2.47;;;2.30;;
44606;SDS011;30315;46.072;14.474;2024-03-06T02:25:20;4.00;;;3.53;;
44606;SDS011;30315;46.072;14.474;2024-03-06T02:30:52;3.45;;;3.22;;
44606;SDS011;30315;46.072;14.474;2024-03-06T02:33:21;3.10;;;2.93;;
44606;SDS011;30315;46.072;14.474;2024-03-06T02:35:48;3.35;;;2.78;;
44606;SDS011;30315;46.072;14.474;2024-03-06T02:38:15;4.50;;;3.90;;
44606;SDS011;30315;46.072;14.474;2024-03-06T02:40:47;17.85;;;3.70;;
44606;SDS011;30315;46.072;14.474;2024-03-06T02:43:14;4.85;;;3.45;;
44606;SDS011;30315;46.072;14.474;2024-03-06T02:45:42;5.22;;;3.85;;
44606;SDS011;30315;46.072;14.474;2024-03-06T02:48:13;5.13;;;3.47;;
44606;SDS011;30315;46.072;14.474;2024-03-06T02:50:42;3.50;;;3.05;;
44606;SDS011;30315;46.072;14.474;2024-03-06T02:53:10;5.13;;;3.75;;
44606;SDS011;30315;46.072;14.474;2024-03-06T02:55:39;3.78;;;3.50;;
44606;SDS011;30315;46.072;14.474;2024-03-06T02:58:08;3.83;;;3.53;;
44606;SDS011;30315;46.072;14.474;2024-03-06T03:00:36;3.05;;;2.88;;
44606;SDS011;30315;46.072;14.474;2024-03-06T03:03:05;3.70;;;3.40;;
44606;SDS011;30315;46.072;14.474;2024-03-06T03:05:33;4.25;;;3.85;;
44606;SDS011;30315;46.072;14.474;2024-03-06T03:08:00;3.42;;;3.13;;
44606;SDS011;30315;46.072;14.474;2024-03-06T03:10:29;3.28;;;2.97;;
44606;SDS011;30315;46.072;14.474;2024-03-06T03:13:01;4.18;;;2.92;;
44606;SDS011;30315;46.072;14.474;2024-03-06T03:15:28;6.03;;;3.40;;
44606;SDS011;30315;46.072;14.474;2024-03-06T03:17:58;5.10;;;3.15;;
44606;SDS011;30315;46.072;14.474;2024-03-06T03:20:25;3.50;;;3.20;;
44606;SDS011;30315;46.072;14.474;2024-03-06T03:22:54;3.60;;;3.30;;
44606;SDS011;30315;46.072;14.474;2024-03-06T03:25:23;3.60;;;3.25;;
44606;SDS011;30315;46.072;14.474;2024-03-06T03:27:51;3.17;;;3.08;;
44606;SDS011;30315;46.072;14.474;2024-03-06T03:30:20;14.45;;;3.53;;
44606;SDS011;30315;46.072;14.474;2024-03-06T03:32:50;3.22;;;2.88;;
44606;SDS011;30315;46.072;14.474;2024-03-06T03:35:19;2.70;;;2.60;;
44606;SDS011;30315;46.072;14.474;2024-03-06T03:37:55;3.30;;;3.00;;
44606;SDS011;30315;46.072;14.474;2024-03-06T03:40:23;6.43;;;3.03;;
44606;SDS011;30315;46.072;14.474;2024-03-06T03:42:50;3.38;;;3.08;;
44606;SDS011;30315;46.072;14.474;2024-03-06T03:45:18;3.63;;;3.33;;
44606;SDS011;30315;46.072;14.474;2024-03-06T03:47:46;2.88;;;2.67;;
44606;SDS011;30315;46.072;14.474;2024-03-06T03:50:16;4.15;;;3.80;;
44606;SDS011;30315;46.072;14.474;2024-03-06T03:52:43;3.40;;;3.20;;
44606;SDS011;30315;46.072;14.474;2024-03-06T03:55:10;3.22;;;3.03;;
44606;SDS011;30315;46.072;14.474;2024-03-06T03:57:38;3.10;;;2.90;;
44606;SDS011;30315;46.072;14.474;2024-03-06T04:00:07;3.00;;;2.80;;
44606;SDS011;30315;46.072;14.474;2024-03-06T04:02:38;3.72;;;3.47;;
44606;SDS011;30315;46.072;14.474;2024-03-06T04:10:05;15.02;;;3.28;;
44606;SDS011;30315;46.072;14.474;2024-03-06T04:12:33;3.20;;;3.00;;
44606;SDS011;30315;46.072;14.474;2024-03-06T04:15:00;3.13;;;2.95;;
44606;SDS011;30315;46.072;14.474;2024-03-06T04:17:27;5.43;;;3.75;;
44606;SDS011;30315;46.072;14.474;2024-03-06T04:19:57;4.15;;;3.72;;
44606;SDS011;30315;46.072;14.474;2024-03-06T04:22:24;3.72;;;3.50;;
44606;SDS011;30315;46.072;14.474;2024-03-06T04:24:52;3.67;;;3.47;;
44606;SDS011;30315;46.072;14.474;2024-03-06T04:27:20;3.70;;;3.40;;
44606;SDS011;30315;46.072;14.474;2024-03-06T04:29:47;6.25;;;3.22;;
44606;SDS011;30315;46.072;14.474;2024-03-06T04:32:16;7.32;;;3.17;;
44606;SDS011;30315;46.072;14.474;2024-03-06T04:34:43;4.07;;;3.72;;
44606;SDS011;30315;46.072;14.474;2024-03-06T04:37:13;3.53;;;3.33;;
44606;SDS011;30315;46.072;14.474;2024-03-06T04:39:44;4.05;;;3.67;;
44606;SDS011;30315;46.072;14.474;2024-03-06T04:42:14;5.70;;;4.38;;
44606;SDS011;30315;46.072;14.474;2024-03-06T04:44:41;4.18;;;3.85;;
44606;SDS011;30315;46.072;14.474;2024-03-06T04:47:09;10.05;;;4.10;;
44606;SDS011;30315;46.072;14.474;2024-03-06T04:49:41;5.18;;;4.78;;
44606;SDS011;30315;46.072;14.474;2024-03-06T04:52:09;5.15;;;4.65;;
44606;SDS011;30315;46.072;14.474;2024-03-06T04:54:36;6.95;;;4.60;;
44606;SDS011;30315;46.072;14.474;2024-03-06T04:57:08;4.97;;;4.60;;
44606;SDS011;30315;46.072;14.474;2024-03-06T04:59:37;5.20;;;4.70;;
44606;SDS011;30315;46.072;14.474;2024-03-06T05:02:04;4.78;;;4.32;;
44606;SDS011;30315;46.072;14.474;2024-03-06T05:04:33;4.68;;;4.28;;
44606;SDS011;30315;46.072;14.474;2024-03-06T05:07:18;4.70;;;4.30;;
44606;SDS011;30315;46.072;14.474;2024-03-06T05:10:03;4.38;;;3.97;;
44606;SDS011;30315;46.072;14.474;2024-03-06T05:12:51;4.80;;;4.47;;
44606;SDS011;30315;46.072;14.474;2024-03-06T05:15:37;12.38;;;4.45;;
44606;SDS011;30315;46.072;14.474;2024-03-06T05:18:25;4.50;;;4.20;;
44606;SDS011;30315;46.072;14.474;2024-03-06T05:21:12;4.43;;;4.13;;
44606;SDS011;30315;46.072;14.474;2024-03-06T05:23:56;6.53;;;4.68;;
44606;SDS011;30315;46.072;14.474;2024-03-06T05:26:43;5.10;;;4.70;;
44606;SDS011;30315;46.072;14.474;2024-03-06T05:29:28;5.10;;;4.75;;
44606;SDS011;30315;46.072;14.474;2024-03-06T05:32:15;5.15;;;4.75;;
44606;SDS011;30315;46.072;14.474;2024-03-06T05:35:00;7.40;;;4.97;;
44606;SDS011;30315;46.072;14.474;2024-03-06T05:37:48;5.10;;;4.70;;
44606;SDS011;30315;46.072;14.474;2024-03-06T05:40:32;5.10;;;4.70;;
44606;SDS011;30315;46.072;14.474;2024-03-06T05:43:21;6.10;;;4.85;;
44606;SDS011;30315;46.072;14.474;2024-03-06T05:46:07;5.22;;;4.75;;
44606;SDS011;30315;46.072;14.474;2024-03-06T05:48:52;4.15;;;3.85;;
44606;SDS011;30315;46.072;14.474;2024-03-06T05:51:39;4.55;;;4.15;;
44606;SDS011;30315;46.072;14.474;2024-03-06T05:54:24;6.00;;;5.22;;
44606;SDS011;30315;46.072;14.474;2024-03-06T05:57:11;5.63;;;4.82;;
44606;SDS011;30315;46.072;14.474;2024-03-06T05:59:56;8.32;;;6.03;;
44606;SDS011;30315;46.072;14.474;2024-03-06T06:02:36;6.95;;;5.10;;
44606;SDS011;30315;46.072;14.474;2024-03-06T06:05:04;7.28;;;5.78;;
44606;SDS011;30315;46.072;14.474;2024-03-06T06:07:52;5.55;;;5.05;;
44606;SDS011;30315;46.072;14.474;2024-03-06T06:10:19;16.60;;;6.38;;
44606;SDS011;30315;46.072;14.474;2024-03-06T06:12:49;6.97;;;6.28;;
44606;SDS011;30315;46.072;14.474;2024-03-06T06:15:17;6.65;;;5.95;;
44606;SDS011;30315;46.072;14.474;2024-03-06T06:17:44;6.75;;;6.15;;
44606;SDS011;30315;46.072;14.474;2024-03-06T06:20:15;10.70;;;6.70;;
44606;SDS011;30315;46.072;14.474;2024-03-06T06:22:43;7.57;;;6.38;;
44606;SDS011;30315;46.072;14.474;2024-03-06T06:25:13;7.28;;;6.25;;
44606;SDS011;30315;46.072;14.474;2024-03-06T06:27:42;9.10;;;6.38;;
44606;SDS011;30315;46.072;14.474;2024-03-06T06:30:09;7.65;;;6.47;;
44606;SDS011;30315;46.072;14.474;2024-03-06T06:32:42;7.50;;;6.22;;
44606;SDS011;30315;46.072;14.474;2024-03-06T06:35:10;7.28;;;6.55;;
44606;SDS011;30315;46.072;14.474;2024-03-06T06:37:41;8.30;;;6.07;;
44606;SDS011;30315;46.072;14.474;2024-03-06T06:40:08;7.28;;;6.38;;
44606;SDS011;30315;46.072;14.474;2024-03-06T06:42:43;8.05;;;7.32;;
44606;SDS011;30315;46.072;14.474;2024-03-06T06:45:17;12.63;;;7.00;;
44606;SDS011;30315;46.072;14.474;2024-03-06T06:47:49;13.48;;;8.02;;
44606;SDS011;30315;46.072;14.474;2024-03-06T06:52:48;9.45;;;8.18;;
44606;SDS011;30315;46.072;14.474;2024-03-06T06:55:17;11.07;;;7.43;;
44606;SDS011;30315;46.072;14.474;2024-03-06T06:57:49;7.72;;;6.93;;
44606;SDS011;30315;46.072;14.474;2024-03-06T07:00:17;9.68;;;7.25;;
44606;SDS011;30315;46.072;14.474;2024-03-06T07:02:45;15.50;;;7.78;;
44606;SDS011;30315;46.072;14.474;2024-03-06T07:05:16;8.30;;;7.50;;
44606;SDS011;30315;46.072;14.474;2024-03-06T07:07:43;16.20;;;8.40;;
44606;SDS011;30315;46.072;14.474;2024-03-06T07:10:16;8.90;;;7.30;;
44606;SDS011;30315;46.072;14.474;2024-03-06T07:12:45;7.82;;;7.07;;
44606;SDS011;30315;46.072;14.474;2024-03-06T07:15:12;13.90;;;7.50;;
44606;SDS011;30315;46.072;14.474;2024-03-06T07:17:42;11.05;;;8.13;;
44606;SDS011;30315;46.072;14.474;2024-03-06T07:20:11;9.15;;;7.13;;
44606;SDS011;30315;46.072;14.474;2024-03-06T07:22:40;11.52;;;7.65;;
44606;SDS011;30315;46.072;14.474;2024-03-06T07:25:09;15.40;;;8.10;;
44606;SDS011;30315;46.072;14.474;2024-03-06T07:27:36;11.80;;;9.20;;
44606;SDS011;30315;46.072;14.474;2024-03-06T07:32:37;15.75;;;8.85;;
44606;SDS011;30315;46.072;14.474;2024-03-06T07:35:05;8.25;;;7.45;;
44606;SDS011;30315;46.072;14.474;2024-03-06T07:37:34;13.90;;;9.55;;
44606;SDS011;30315;46.072;14.474;2024-03-06T07:40:04;11.40;;;8.05;;
44606;SDS011;30315;46.072;14.474;2024-03-06T07:42:33;10.02;;;8.10;;
44606;SDS011;30315;46.072;14.474;2024-03-06T07:45:00;10.95;;;8.65;;
44606;SDS011;30315;46.072;14.474;2024-03-06T07:47:32;12.15;;;8.63;;
44606;SDS011;30315;46.072;14.474;2024-03-06T07:49:59;14.73;;;9.27;;
44606;SDS011;30315;46.072;14.474;2024-03-06T07:52:27;13.55;;;8.90;;
44606;SDS011;30315;46.072;14.474;2024-03-06T07:54:58;12.70;;;8.77;;
44606;SDS011;30315;46.072;14.474;2024-03-06T07:57:27;13.10;;;9.25;;
44606;SDS011;30315;46.072;14.474;2024-03-06T07:59:55;13.35;;;8.98;;
44606;SDS011;30315;46.072;14.474;2024-03-06T08:02:24;14.32;;;9.38;;
44606;SDS011;30315;46.072;14.474;2024-03-06T08:04:54;12.38;;;8.57;;
44606;SDS011;30315;46.072;14.474;2024-03-06T08:07:24;9.07;;;7.85;;
44606;SDS011;30315;46.072;14.474;2024-03-06T08:09:53;24.42;;;9.40;;
44606;SDS011;30315;46.072;14.474;2024-03-06T08:12:23;12.32;;;8.55;;
44606;SDS011;30315;46.072;14.474;2024-03-06T08:14:50;12.48;;;8.50;;
44606;SDS011;30315;46.072;14.474;2024-03-06T08:17:19;9.93;;;7.85;;
44606;SDS011;30315;46.072;14.474;2024-03-06T08:19:48;11.98;;;8.40;;
44606;SDS011;30315;46.072;14.474;2024-03-06T08:22:15;7.68;;;7.05;;
44606;SDS011;30315;46.072;14.474;2024-03-06T08:24:45;15.15;;;7.38;;
44606;SDS011;30315;46.072;14.474;2024-03-06T08:27:14;11.20;;;8.65;;
44606;SDS011;30315;46.072;14.474;2024-03-06T08:29:42;12.90;;;8.05;;
44606;SDS011;30315;46.072;14.474;2024-03-06T08:32:09;11.70;;;8.32;;
44606;SDS011;30315;46.072;14.474;2024-03-06T08:34:37;10.77;;;7.28;;
44606;SDS011;30315;46.072;14.474;2024-03-06T08:37:08;8.25;;;7.20;;
44606;SDS011;30315;46.072;14.474;2024-03-06T08:39:35;11.90;;;8.93;;
44606;SDS011;30315;46.072;14.474;2024-03-06T08:42:03;12.15;;;8.23;;
44606;SDS011;30315;46.072;14.474;2024-03-06T08:44:32;8.20;;;7.20;;
44606;SDS011;30315;46.072;14.474;2024-03-06T08:47:02;10.75;;;7.50;;
44606;SDS011;30315;46.072;14.474;2024-03-06T08:49:30;9.98;;;7.85;;
44606;SDS011;30315;46.072;14.474;2024-03-06T08:51:57;11.55;;;8.02;;
44606;SDS011;30315;46.072;14.474;2024-03-06T08:54:28;12.82;;;7.50;;
44606;SDS011;30315;46.072;14.474;2024-03-06T08:56:57;11.80;;;7.68;;
44606;SDS011;30315;46.072;14.474;2024-03-06T08:59:25;8.95;;;7.10;;
44606;SDS011;30315;46.072;14.474;2024-03-06T09:01:57;8.43;;;7.50;;
44606;SDS011;30315;46.072;14.474;2024-03-06T09:04:38;7.22;;;6.50;;
44606;SDS011;30315;46.072;14.474;2024-03-06T09:07:06;11.20;;;7.95;;
44606;SDS011;30315;46.072;14.474;2024-03-06T09:09:38;6.93;;;5.53;;
44606;SDS011;30315;46.072;14.474;2024-03-06T09:12:06;8.05;;;6.45;;
44606;SDS011;30315;46.072;14.474;2024-03-06T09:14:39;10.25;;;7.45;;
44606;SDS011;30315;46.072;14.474;2024-03-06T09:19:43;9.82;;;6.65;;
44606;SDS011;30315;46.072;14.474;2024-03-06T09:22:29;9.13;;;7.10;;
44606;SDS011;30315;46.072;14.474;2024-03-06T09:25:01;7.40;;;6.55;;
44606;SDS011;30315;46.072;14.474;2024-03-06T09:27:28;14.75;;;7.13;;
44606;SDS011;30315;46.072;14.474;2024-03-06T09:29:56;7.65;;;6.15;;
44606;SDS011;30315;46.072;14.474;2024-03-06T09:32:28;7.90;;;6.50;;
44606;SDS011;30315;46.072;14.474;2024-03-06T09:34:58;9.52;;;7.88;;
44606;SDS011;30315;46.072;14.474;2024-03-06T09:37:26;9.77;;;7.72;;
44606;SDS011;30315;46.072;14.474;2024-03-06T09:39:56;13.95;;;9.00;;
44606;SDS011;30315;46.072;14.474;2024-03-06T09:42:25;15.93;;;8.07;;
44606;SDS011;30315;46.072;14.474;2024-03-06T09:44:52;18.00;;;9.07;;
44606;SDS011;30315;46.072;14.474;2024-03-06T09:47:22;16.38;;;8.40;;
44606;SDS011;30315;46.072;14.474;2024-03-06T09:49:52;9.35;;;7.70;;
44606;SDS011;30315;46.072;14.474;2024-03-06T09:52:23;14.52;;;8.57;;
44606;SDS011;30315;46.072;14.474;2024-03-06T09:54:53;12.95;;;8.40;;
44606;SDS011;30315;46.072;14.474;2024-03-06T09:57:22;11.90;;;8.30;;
44606;SDS011;30315;46.072;14.474;2024-03-06T09:59:54;17.42;;;9.35;;
44606;SDS011;30315;46.072;14.474;2024-03-06T10:02:28;11.93;;;8.63;;
44606;SDS011;30315;46.072;14.474;2024-03-06T10:05:05;8.38;;;7.53;;
44606;SDS011;30315;46.072;14.474;2024-03-06T10:07:47;12.90;;;8.57;;
44606;SDS011;30315;46.072;14.474;2024-03-06T10:10:21;11.70;;;8.50;;
44606;SDS011;30315;46.072;14.474;2024-03-06T10:12:50;11.70;;;8.07;;
44606;SDS011;30315;46.072;14.474;2024-03-06T10:15:18;10.48;;;8.43;;
44606;SDS011;30315;46.072;14.474;2024-03-06T10:17:45;15.00;;;8.85;;
44606;SDS011;30315;46.072;14.474;2024-03-06T10:20:18;14.27;;;7.88;;
44606;SDS011;30315;46.072;14.474;2024-03-06T10:22:53;9.20;;;8.25;;
44606;SDS011;30315;46.072;14.474;2024-03-06T10:25:24;11.02;;;8.43;;
44606;SDS011;30315;46.072;14.474;2024-03-06T10:28:10;14.77;;;8.88;;
44606;SDS011;30315;46.072;14.474;2024-03-06T10:30:41;11.23;;;9.05;;
44606;SDS011;30315;46.072;14.474;2024-03-06T10:33:11;16.80;;;8.55;;
44606;SDS011;30315;46.072;14.474;2024-03-06T10:35:43;11.85;;;9.25;;
44606;SDS011;30315;46.072;14.474;2024-03-06T10:38:13;10.93;;;8.30;;
44606;SDS011;30315;46.072;14.474;2024-03-06T10:40:42;11.57;;;8.10;;
44606;SDS011;30315;46.072;14.474;2024-03-06T10:43:10;14.57;;;8.90;;
44606;SDS011;30315;46.072;14.474;2024-03-06T10:48:18;12.55;;;8.63;;
44606;SDS011;30315;46.072;14.474;2024-03-06T10:50:49;13.27;;;8.80;;
44606;SDS011;30315;46.072;14.474;2024-03-06T10:53:18;10.95;;;9.35;;
44606;SDS011;30315;46.072;14.474;2024-03-06T10:55:50;9.65;;;8.55;;
44606;SDS011;30315;46.072;14.474;2024-03-06T10:58:20;9.57;;;7.47;;
44606;SDS011;30315;46.072;14.474;2024-03-06T11:00:50;8.90;;;8.05;;
44606;SDS011;30315;46.072;14.474;2024-03-06T11:03:19;11.40;;;7.65;;
44606;SDS011;30315;46.072;14.474;2024-03-06T11:05:48;11.07;;;8.98;;
44606;SDS011;30315;46.072;14.474;2024-03-06T11:08:20;18.88;;;8.75;;
44606;SDS011;30315;46.072;14.474;2024-03-06T11:10:48;10.05;;;7.15;;
44606;SDS011;30315;46.072;14.474;2024-03-06T11:13:24;10.48;;;8.85;;
44606;SDS011;30315;46.072;14.474;2024-03-06T11:15:57;11.65;;;8.05;;
44606;SDS011;30315;46.072;14.474;2024-03-06T11:23:38;20.17;;;8.90;;
44606;SDS011;30315;46.072;14.474;2024-03-06T11:26:45;12.43;;;7.15;;
44606;SDS011;30315;46.072;14.474;2024-03-06T11:29:19;11.35;;;8.18;;
44606;SDS011;30315;46.072;14.474;2024-03-06T11:32:00;7.78;;;7.10;;
44606;SDS011;30315;46.072;14.474;2024-03-06T11:34:30;10.63;;;8.25;;
44606;SDS011;30315;46.072;14.474;2024-03-06T11:36:58;13.98;;;8.90;;
44606;SDS011;30315;46.072;14.474;2024-03-06T11:39:33;13.55;;;9.00;;
44606;SDS011;30315;46.072;14.474;2024-03-06T11:42:05;10.35;;;6.72;;
44606;SDS011;30315;46.072;14.474;2024-03-06T11:44:37;11.15;;;8.07;;
44606;SDS011;30315;46.072;14.474;2024-03-06T11:47:20;14.10;;;7.68;;
44606;SDS011;30315;46.072;14.474;2024-03-06T11:49:52;17.38;;;7.68;;
44606;SDS011;30315;46.072;14.474;2024-03-06T11:52:20;11.73;;;8.65;;
44606;SDS011;30315;46.072;14.474;2024-03-06T11:54:50;8.82;;;7.95;;
44606;SDS011;30315;46.072;14.474;2024-03-06T11:57:19;10.50;;;8.38;;
44606;SDS011;30315;46.072;14.474;2024-03-06T11:59:48;9.57;;;7.18;;
44606;SDS011;30315;46.072;14.474;2024-03-06T12:02:18;10.48;;;7.45;;
44606;SDS011;30315;46.072;14.474;2024-03-06T12:04:48;16.73;;;8.57;;
44606;SDS011;30315;46.072;14.474;2024-03-06T12:07:15;8.60;;;7.32;;
44606;SDS011;30315;46.072;14.474;2024-03-06T12:09:48;7.82;;;7.07;;
44606;SDS011;30315;46.072;14.474;2024-03-06T12:12:15;9.68;;;7.53;;
44606;SDS011;30315;46.072;14.474;2024-03-06T12:14:43;14.82;;;8.13;;
44606;SDS011;30315;46.072;14.474;2024-03-06T12:17:24;9.57;;;7.68;;
44606;SDS011;30315;46.072;14.474;2024-03-06T12:19:51;9.35;;;7.75;;
44606;SDS011;30315;46.072;14.474;2024-03-06T12:22:25;13.05;;;7.35;;
44606;SDS011;30315;46.072;14.474;2024-03-06T12:25:00;16.00;;;8.95;;
44606;SDS011;30315;46.072;14.474;2024-03-06T12:27:28;12.95;;;8.07;;
44606;SDS011;30315;46.072;14.474;2024-03-06T12:29:59;10.80;;;8.32;;
44606;SDS011;30315;46.072;14.474;2024-03-06T12:32:27;8.45;;;7.07;;
44606;SDS011;30315;46.072;14.474;2024-03-06T12:34:57;8.98;;;7.47;;
44606;SDS011;30315;46.072;14.474;2024-03-06T12:37:30;12.63;;;9.50;;
44606;SDS011;30315;46.072;14.474;2024-03-06T12:39:59;7.45;;;6.50;;
44606;SDS011;30315;46.072;14.474;2024-03-06T12:42:27;9.70;;;7.78;;
44606;SDS011;30315;46.072;14.474;2024-03-06T12:44:55;11.07;;;7.43;;
44606;SDS011;30315;46.072;14.474;2024-03-06T12:47:24;10.32;;;8.45;;
44606;SDS011;30315;46.072;14.474;2024-03-06T12:49:52;9.70;;;7.30;;
44606;SDS011;30315;46.072;14.474;2024-03-06T12:52:19;10.40;;;6.95;;
44606;SDS011;30315;46.072;14.474;2024-03-06T12:54:46;11.25;;;8.30;;
44606;SDS011;30315;46.072;14.474;2024-03-06T12:57:16;11.02;;;7.45;;
44606;SDS011;30315;46.072;14.474;2024-03-06T12:59:44;14.35;;;8.23;;
44606;SDS011;30315;46.072;14.474;2024-03-06T13:02:13;10.95;;;7.88;;
44606;SDS011;30315;46.072;14.474;2024-03-06T13:04:41;11.13;;;8.30;;
44606;SDS011;30315;46.072;14.474;2024-03-06T13:07:08;14.02;;;8.23;;
44606;SDS011;30315;46.072;14.474;2024-03-06T13:09:35;10.70;;;7.85;;
44606;SDS011;30315;46.072;14.474;2024-03-06T13:12:05;13.32;;;8.82;;
44606;SDS011;30315;46.072;14.474;2024-03-06T13:14:32;18.60;;;13.60;;
44606;SDS011;30315;46.072;14.474;2024-03-06T13:17:02;15.85;;;9.48;;
44606;SDS011;30315;46.072;14.474;2024-03-06T13:19:31;13.07;;;8.48;;
44606;SDS011;30315;46.072;14.474;2024-03-06T13:21:59;11.63;;;7.93;;
44606;SDS011;30315;46.072;14.474;2024-03-06T13:24:31;12.55;;;7.15;;
44606;SDS011;30315;46.072;14.474;2024-03-06T13:27:02;7.22;;;6.38;;
44606;SDS011;30315;46.072;14.474;2024-03-06T13:29:32;9.55;;;7.72;;
44606;SDS011;30315;46.072;14.474;2024-03-06T13:31:59;8.93;;;7.97;;
44606;SDS011;30315;46.072;14.474;2024-03-06T13:34:28;11.68;;;8.02;;
44606;SDS011;30315;46.072;14.474;2024-03-06T13:36:58;8.80;;;7.18;;
44606;SDS011;30315;46.072;14.474;2024-03-06T13:39:25;9.50;;;7.18;;
44606;SDS011;30315;46.072;14.474;2024-03-06T13:41:54;7.97;;;7.18;;
44606;SDS011;30315;46.072;14.474;2024-03-06T13:46:51;8.90;;;6.43;;
44606;SDS011;30315;46.072;14.474;2024-03-06T13:49:55;10.18;;;7.45;;
44606;SDS011;30315;46.072;14.474;2024-03-06T13:52:14;7.03;;;6.35;;
44606;SDS011;30315;46.072;14.474;2024-03-06T13:54:47;11.68;;;7.25;;
44606;SDS011;30315;46.072;14.474;2024-03-06T13:57:17;7.32;;;6.63;;
44606;SDS011;30315;46.072;14.474;2024-03-06T13:59:44;11.10;;;6.93;;
44606;SDS011;30315;46.072;14.474;2024-03-06T14:02:14;6.50;;;5.90;;
44606;SDS011;30315;46.072;14.474;2024-03-06T14:04:43;7.50;;;6.35;;
44606;SDS011;30315;46.072;14.474;2024-03-06T14:07:19;8.25;;;6.28;;
44606;SDS011;30315;46.072;14.474;2024-03-06T14:09:50;9.30;;;6.60;;
44606;SDS011;30315;46.072;14.474;2024-03-06T14:12:18;6.35;;;5.43;;
44606;SDS011;30315;46.072;14.474;2024-03-06T14:14:45;8.23;;;6.68;;
44606;SDS011;30315;46.072;14.474;2024-03-06T14:17:17;9.23;;;6.10;;
44606;SDS011;30315;46.072;14.474;2024-03-06T14:19:45;5.88;;;5.28;;
44606;SDS011;30315;46.072;14.474;2024-03-06T14:22:12;6.82;;;6.20;;
44606;SDS011;30315;46.072;14.474;2024-03-06T14:24:43;6.07;;;5.63;;
44606;SDS011;30315;46.072;14.474;2024-03-06T14:27:10;7.45;;;5.78;;
44606;SDS011;30315;46.072;14.474;2024-03-06T14:29:42;8.73;;;5.93;;
44606;SDS011;30315;46.072;14.474;2024-03-06T14:32:14;10.07;;;5.32;;
44606;SDS011;30315;46.072;14.474;2024-03-06T14:34:41;6.32;;;5.72;;
44606;SDS011;30315;46.072;14.474;2024-03-06T14:37:10;8.63;;;6.60;;
44606;SDS011;30315;46.072;14.474;2024-03-06T14:39:37;10.05;;;6.20;;
44606;SDS011;30315;46.072;14.474;2024-03-06T14:42:06;10.57;;;6.30;;
44606;SDS011;30315;46.072;14.474;2024-03-06T14:44:34;5.95;;;5.28;;
44606;SDS011;30315;46.072;14.474;2024-03-06T14:47:03;7.55;;;6.80;;
44606;SDS011;30315;46.072;14.474;2024-03-06T14:49:33;9.02;;;6.47;;
44606;SDS011;30315;46.072;14.474;2024-03-06T14:52:01;11.63;;;4.80;;
44606;SDS011;30315;46.072;14.474;2024-03-06T14:54:31;5.40;;;4.90;;
44606;SDS011;30315;46.072;14.474;2024-03-06T14:57:00;12.38;;;5.68;;
44606;SDS011;30315;46.072;14.474;2024-03-06T14:59:30;5.38;;;4.88;;
44606;SDS011;30315;46.072;14.474;2024-03-06T15:02:03;6.20;;;5.32;;
44606;SDS011;30315;46.072;14.474;2024-03-06T15:04:37;5.78;;;5.18;;
44606;SDS011;30315;46.072;14.474;2024-03-06T15:07:04;6.63;;;6.03;;
44606;SDS011;30315;46.072;14.474;2024-03-06T15:09:36;10.88;;;4.93;;
44606;SDS011;30315;46.072;14.474;2024-03-06T15:12:03;5.57;;;4.45;;
44606;SDS011;30315;46.072;14.474;2024-03-06T15:14:36;5.50;;;4.97;;
44606;SDS011;30315;46.072;14.474;2024-03-06T15:17:12;6.55;;;5.32;;
44606;SDS011;30315;46.072;14.474;2024-03-06T15:19:41;4.95;;;4.57;;
44606;SDS011;30315;46.072;14.474;2024-03-06T15:22:08;5.55;;;5.15;;
44606;SDS011;30315;46.072;14.474;2024-03-06T15:24:37;5.57;;;5.07;;
44606;SDS011;30315;46.072;14.474;2024-03-06T15:27:09;5.70;;;5.15;;
44606;SDS011;30315;46.072;14.474;2024-03-06T15:29:38;5.40;;;4.18;;
44606;SDS011;30315;46.072;14.474;2024-03-06T15:32:06;5.18;;;4.22;;
44606;SDS011;30315;46.072;14.474;2024-03-06T15:34:33;4.60;;;4.15;;
44606;SDS011;30315;46.072;14.474;2024-03-06T15:37:01;6.95;;;5.28;;
44606;SDS011;30315;46.072;14.474;2024-03-06T15:39:29;5.15;;;4.75;;
44606;SDS011;30315;46.072;14.474;2024-03-06T15:44:28;8.02;;;5.93;;
44606;SDS011;30315;46.072;14.474;2024-03-06T15:46:57;5.70;;;5.22;;
44606;SDS011;30315;46.072;14.474;2024-03-06T15:49:36;7.68;;;4.85;;
44606;SDS011;30315;46.072;14.474;2024-03-06T15:52:05;7.90;;;5.30;;
44606;SDS011;30315;46.072;14.474;2024-03-06T15:54:35;6.95;;;5.32;;
44606;SDS011;30315;46.072;14.474;2024-03-06T15:57:03;6.15;;;4.82;;
44606;SDS011;30315;46.072;14.474;2024-03-06T15:59:34;4.85;;;4.55;;
44606;SDS011;30315;46.072;14.474;2024-03-06T16:02:03;4.93;;;4.40;;
44606;SDS011;30315;46.072;14.474;2024-03-06T16:04:31;6.72;;;5.35;;
44606;SDS011;30315;46.072;14.474;2024-03-06T16:06:58;5.97;;;5.32;;
44606;SDS011;30315;46.072;14.474;2024-03-06T16:09:28;5.85;;;4.75;;
44606;SDS011;30315;46.072;14.474;2024-03-06T16:11:57;9.73;;;5.38;;
44606;SDS011;30315;46.072;14.474;2024-03-06T16:14:25;7.50;;;4.80;;
44606;SDS011;30315;46.072;14.474;2024-03-06T16:16:56;9.02;;;5.53;;
44606;SDS011;30315;46.072;14.474;2024-03-06T16:19:33;7.00;;;5.45;;
44606;SDS011;30315;46.072;14.474;2024-03-06T16:22:11;6.72;;;5.22;;
44606;SDS011;30315;46.072;14.474;2024-03-06T16:24:40;6.55;;;5.90;;
44606;SDS011;30315;46.072;14.474;2024-03-06T16:27:09;5.30;;;4.65;;
44606;SDS011;30315;46.072;14.474;2024-03-06T16:29:36;5.85;;;5.45;;
44606;SDS011;30315;46.072;14.474;2024-03-06T16:32:05;8.27;;;5.13;;
44606;SDS011;30315;46.072;14.474;2024-03-06T16:37:02;5.25;;;4.85;;
44606;SDS011;30315;46.072;14.474;2024-03-06T16:39:31;6.50;;;5.78;;
44606;SDS011;30315;46.072;14.474;2024-03-06T16:42:02;6.57;;;4.68;;
44606;SDS011;30315;46.072;14.474;2024-03-06T16:44:34;6.55;;;4.55;;
44606;SDS011;30315;46.072;14.474;2024-03-06T16:47:03;5.47;;;4.90;;
44606;SDS011;30315;46.072;14.474;2024-03-06T16:49:31;11.15;;;4.97;;
44606;SDS011;30315;46.072;14.474;2024-03-06T16:52:00;5.15;;;4.75;;
44606;SDS011;30315;46.072;14.474;2024-03-06T16:54:27;7.40;;;5.53;;
44606;SDS011;30315;46.072;14.474;2024-03-06T16:56:57;6.78;;;5.70;;
44606;SDS011;30315;46.072;14.474;2024-03-06T17:01:56;4.47;;;4.25;;
44606;SDS011;30315;46.072;14.474;2024-03-06T17:04:23;5.07;;;4.55;;
44606;SDS011;30315;46.072;14.474;2024-03-06T17:06:51;7.75;;;5.38;;
44606;SDS011;30315;46.072;14.474;2024-03-06T17:09:20;5.88;;;5.38;;
44606;SDS011;30315;46.072;14.474;2024-03-06T17:11:49;5.75;;;4.68;;
44606;SDS011;30315;46.072;14.474;2024-03-06T17:14:17;5.50;;;4.43;;
44606;SDS011;30315;46.072;14.474;2024-03-06T17:16:46;5.15;;;4.72;;
44606;SDS011;30315;46.072;14.474;2024-03-06T17:19:15;6.72;;;5.35;;
44606;SDS011;30315;46.072;14.474;2024-03-06T17:21:43;5.78;;;5.22;;
44606;SDS011;30315;46.072;14.474;2024-03-06T17:24:12;5.88;;;5.38;;
44606;SDS011;30315;46.072;14.474;2024-03-06T17:26:42;7.20;;;5.25;;
44606;SDS011;30315;46.072;14.474;2024-03-06T17:29:10;4.60;;;4.30;;